createdAt,value
2022-10-19T00:00:57.615Z,44.47
2022-10-19T00:01:57.629Z,46.25
2022-10-19T00:02:57.595Z,45.76
2022-10-19T00:03:57.597Z,45.28
2022-10-19T00:04:57.620Z,43.83
2022-10-19T00:05:57.566Z,43.02
2022-10-19T00:06:57.596Z,45.12
2022-10-19T00:07:57.553Z,45.92
2022-10-19T00:08:57.556Z,45.76
2022-10-19T00:09:57.556Z,45.60
2022-10-19T00:10:57.526Z,46.57
2022-10-19T00:11:57.528Z,43.99
2022-10-19T00:12:57.512Z,44.15
2022-10-19T00:13:57.510Z,46.08
2022-10-19T00:14:57.506Z,45.12
2022-10-19T00:15:57.965Z,45.28
2022-10-19T00:16:57.486Z,44.47
2022-10-19T00:17:57.480Z,45.76
2022-10-19T00:18:57.478Z,49.63
2022-10-19T00:19:57.467Z,45.12
2022-10-19T00:20:58.116Z,42.86
2022-10-19T00:21:57.469Z,44.15
2022-10-19T00:22:57.470Z,42.22
2022-10-19T00:23:57.449Z,42.86
2022-10-19T00:24:57.427Z,42.22
2022-10-19T00:25:57.424Z,41.57
2022-10-19T00:26:57.446Z,42.06
2022-10-19T00:27:57.408Z,42.38
2022-10-19T00:28:57.491Z,41.73
2022-10-19T00:29:57.446Z,41.73
2022-10-19T00:30:57.385Z,41.89
2022-10-19T00:31:57.386Z,46.57
2022-10-19T00:32:57.381Z,41.89
2022-10-19T00:33:57.392Z,40.44
2022-10-19T00:34:57.396Z,40.77
2022-10-19T00:35:57.363Z,41.25
2022-10-19T00:36:57.341Z,41.25
2022-10-19T00:37:57.347Z,45.92
2022-10-19T00:38:57.374Z,41.41
2022-10-19T00:39:57.326Z,40.28
2022-10-19T00:40:57.319Z,40.61
2022-10-19T00:41:57.322Z,40.93
2022-10-19T00:42:57.299Z,40.28
2022-10-19T00:43:57.314Z,40.93
2022-10-19T00:44:57.281Z,40.93
2022-10-19T00:45:57.274Z,40.61
2022-10-19T00:46:57.396Z,40.44
2022-10-19T00:47:57.266Z,40.61
2022-10-19T00:48:57.261Z,41.09
2022-10-19T00:49:57.884Z,40.77
2022-10-19T00:50:57.244Z,40.77
2022-10-19T00:51:57.797Z,40.28
2022-10-19T00:52:57.433Z,40.93
2022-10-19T00:53:58.151Z,40.77
2022-10-19T00:54:57.253Z,40.44
2022-10-19T00:55:57.218Z,40.61
2022-10-19T00:56:57.219Z,40.61
2022-10-19T00:57:57.216Z,40.61
2022-10-19T00:58:57.248Z,40.44
2022-10-19T00:59:57.181Z,40.77
2022-10-19T01:00:57.269Z,41.09
2022-10-19T01:01:57.167Z,40.77
2022-10-19T01:02:57.169Z,40.77
2022-10-19T01:03:57.151Z,40.93
2022-10-19T01:04:57.167Z,40.61
2022-10-19T01:05:57.149Z,40.77
2022-10-19T01:06:57.135Z,40.77
2022-10-19T01:07:57.119Z,40.77
2022-10-19T01:08:57.126Z,40.44
2022-10-19T01:09:57.131Z,40.61
2022-10-19T01:10:57.117Z,41.25
2022-10-19T01:11:57.523Z,41.73
2022-10-19T01:12:57.098Z,40.61
2022-10-19T01:13:57.075Z,41.41
2022-10-19T01:14:57.072Z,40.93
2022-10-19T01:15:57.085Z,41.89
2022-10-19T01:16:57.061Z,41.41
2022-10-19T01:17:57.053Z,40.77
2022-10-19T01:18:57.053Z,40.77
2022-10-19T01:19:57.042Z,40.93
2022-10-19T01:20:57.025Z,40.93
2022-10-19T01:21:57.035Z,40.61
2022-10-19T01:22:57.003Z,40.77
2022-10-19T01:23:57.003Z,41.57
2022-10-19T01:24:57.042Z,47.86
2022-10-19T01:25:56.993Z,41.41
2022-10-19T01:26:57.017Z,41.09
2022-10-19T01:27:56.970Z,40.44
2022-10-19T01:28:57.006Z,40.93
2022-10-19T01:29:56.962Z,42.22
2022-10-19T01:30:56.942Z,41.41
2022-10-19T01:31:56.958Z,41.09
2022-10-19T01:32:56.930Z,40.93
2022-10-19T01:34:56.927Z,40.93
2022-10-19T01:35:56.906Z,40.93
2022-10-19T01:36:56.902Z,41.25
2022-10-19T01:37:56.913Z,40.93
2022-10-19T01:38:56.885Z,40.61
2022-10-19T01:39:56.884Z,41.09
2022-10-19T01:40:56.888Z,40.93
2022-10-19T01:41:56.861Z,41.25
2022-10-19T01:42:56.904Z,40.77
2022-10-19T01:43:56.847Z,41.25
2022-10-19T01:44:56.844Z,41.25
2022-10-19T01:45:56.842Z,40.77
2022-10-19T01:46:56.841Z,41.25
2022-10-19T01:47:56.852Z,41.09
2022-10-19T01:48:56.877Z,42.22
2022-10-19T01:49:56.954Z,41.57
2022-10-19T01:50:56.808Z,41.57
2022-10-19T01:52:56.807Z,43.02
2022-10-19T01:53:56.789Z,41.57
2022-10-19T01:54:56.874Z,43.51
2022-10-19T01:55:56.766Z,41.57
2022-10-19T01:56:56.766Z,41.57
2022-10-19T01:57:56.836Z,40.77
2022-10-19T01:58:56.778Z,40.77
2022-10-19T01:59:56.747Z,41.25
2022-10-19T02:00:56.897Z,41.25
2022-10-19T02:01:57.002Z,41.73
2022-10-19T02:02:56.721Z,42.06
2022-10-19T02:03:56.723Z,41.57
2022-10-19T02:04:56.719Z,42.06
2022-10-19T02:05:56.701Z,40.93
2022-10-19T02:06:56.706Z,40.77
2022-10-19T02:07:56.697Z,41.41
2022-10-19T02:08:56.678Z,40.93
2022-10-19T02:09:56.697Z,40.77
2022-10-19T02:10:56.677Z,41.41
2022-10-19T02:11:57.252Z,40.93
2022-10-19T02:12:56.656Z,40.93
2022-10-19T02:13:56.658Z,40.77
2022-10-19T02:14:56.671Z,41.09
2022-10-19T02:15:56.638Z,41.25
2022-10-19T02:16:56.651Z,41.25
2022-10-19T02:17:56.640Z,51.40
2022-10-19T02:18:56.618Z,42.38
2022-10-19T02:19:56.800Z,41.73
2022-10-19T02:20:56.597Z,41.57
2022-10-19T02:21:56.606Z,41.57
2022-10-19T02:22:56.606Z,41.73
2022-10-19T02:23:56.584Z,41.73
2022-10-19T02:24:56.573Z,42.06
2022-10-19T02:25:56.598Z,42.38
2022-10-19T02:26:56.564Z,48.34
2022-10-19T02:27:56.556Z,41.41
2022-10-19T02:28:56.576Z,40.93
2022-10-19T02:29:56.542Z,43.34
2022-10-19T02:30:56.563Z,43.34
2022-10-19T02:31:56.545Z,40.77
2022-10-19T02:32:56.523Z,41.09
2022-10-19T02:33:56.530Z,42.22
2022-10-19T02:34:56.502Z,41.57
2022-10-19T02:35:56.501Z,40.77
2022-10-19T02:36:56.511Z,42.70
2022-10-19T02:37:56.495Z,42.06
2022-10-19T02:38:56.478Z,41.25
2022-10-19T02:39:56.480Z,41.25
2022-10-19T02:40:56.463Z,42.22
2022-10-19T02:41:56.448Z,40.77
2022-10-19T02:42:56.463Z,41.09
2022-10-19T02:43:56.625Z,41.73
2022-10-19T02:44:56.431Z,41.09
2022-10-19T02:45:56.438Z,41.41
2022-10-19T02:46:56.436Z,41.09
2022-10-19T02:47:56.409Z,41.09
2022-10-19T02:48:56.425Z,41.73
2022-10-19T02:49:56.395Z,41.73
2022-10-19T02:50:56.411Z,40.93
2022-10-19T02:51:56.383Z,41.25
2022-10-19T02:52:56.381Z,40.61
2022-10-19T02:53:57.401Z,40.77
2022-10-19T02:54:56.377Z,40.77
2022-10-19T02:55:56.381Z,42.54
2022-10-19T02:56:56.349Z,41.09
2022-10-19T02:57:56.332Z,40.77
2022-10-19T02:58:56.345Z,41.57
2022-10-19T02:59:56.320Z,40.77
2022-10-19T03:00:56.385Z,41.09
2022-10-19T03:01:56.564Z,41.57
2022-10-19T03:02:56.327Z,41.09
2022-10-19T03:03:56.302Z,41.25
2022-10-19T03:04:56.310Z,41.25
2022-10-19T03:05:56.277Z,40.77
2022-10-19T03:06:56.297Z,40.93
2022-10-19T03:07:56.267Z,41.09
2022-10-19T03:08:56.263Z,40.61
2022-10-19T03:09:56.274Z,40.77
2022-10-19T03:10:56.257Z,40.61
2022-10-19T03:11:56.349Z,40.93
2022-10-19T03:12:56.246Z,41.73
2022-10-19T03:13:56.241Z,41.09
2022-10-19T03:14:56.228Z,41.57
2022-10-19T03:15:56.223Z,41.41
2022-10-19T03:16:56.338Z,41.73
2022-10-19T03:17:56.223Z,41.41
2022-10-19T03:18:56.736Z,41.73
2022-10-19T03:19:56.183Z,41.73
2022-10-19T03:20:58.867Z,41.25
2022-10-19T03:21:56.165Z,42.22
2022-10-19T03:22:56.189Z,41.57
2022-10-19T03:23:56.164Z,41.57
2022-10-19T03:24:56.143Z,42.06
2022-10-19T03:25:56.134Z,41.73
2022-10-19T03:26:56.126Z,41.25
2022-10-19T03:27:56.125Z,41.57
2022-10-19T03:28:56.166Z,41.09
2022-10-19T03:29:56.119Z,41.25
2022-10-19T03:30:56.123Z,41.73
2022-10-19T03:31:56.095Z,41.25
2022-10-19T03:32:56.090Z,41.25
2022-10-19T03:33:56.115Z,41.73
2022-10-19T03:34:56.104Z,41.25
2022-10-19T03:35:56.067Z,41.57
2022-10-19T03:36:56.079Z,41.09
2022-10-19T03:37:56.052Z,41.09
2022-10-19T03:38:56.050Z,41.89
2022-10-19T03:39:56.038Z,41.25
2022-10-19T03:40:56.042Z,41.41
2022-10-19T03:41:56.047Z,41.41
2022-10-19T03:42:56.025Z,41.25
2022-10-19T03:43:56.076Z,41.09
2022-10-19T03:44:56.003Z,40.93
2022-10-19T03:45:56.008Z,41.73
2022-10-19T03:46:56.767Z,41.57
2022-10-19T03:47:55.984Z,41.09
2022-10-19T03:48:55.980Z,40.77
2022-10-19T03:49:55.972Z,41.09
2022-10-19T03:50:55.991Z,40.93
2022-10-19T03:51:55.973Z,41.25
2022-10-19T03:52:56.011Z,41.41
2022-10-19T03:53:56.167Z,41.09
2022-10-19T03:54:55.957Z,41.25
2022-10-19T03:55:55.958Z,40.77
2022-10-19T03:56:55.955Z,41.25
2022-10-19T03:57:55.930Z,41.41
2022-10-19T03:58:55.901Z,40.93
2022-10-19T03:59:55.903Z,40.93
2022-10-19T04:00:56.655Z,40.77
2022-10-19T04:01:55.898Z,41.09
2022-10-19T04:02:55.881Z,42.06
2022-10-19T04:03:55.879Z,44.15
2022-10-19T04:04:55.875Z,41.73
2022-10-19T04:05:55.884Z,41.25
2022-10-19T04:06:55.865Z,41.57
2022-10-19T04:07:55.840Z,41.41
2022-10-19T04:08:55.839Z,41.73
2022-10-19T04:09:55.843Z,42.22
2022-10-19T04:10:55.820Z,41.41
2022-10-19T04:11:55.854Z,41.25
2022-10-19T04:12:55.802Z,41.57
2022-10-19T04:13:55.836Z,42.22
2022-10-19T04:14:57.773Z,41.89
2022-10-19T04:15:55.789Z,41.41
2022-10-19T04:16:55.769Z,42.54
2022-10-19T04:17:55.779Z,41.09
2022-10-19T04:18:55.771Z,41.09
2022-10-19T04:19:55.761Z,41.09
2022-10-19T04:20:55.747Z,41.09
2022-10-19T04:21:55.745Z,41.57
2022-10-19T04:22:55.757Z,41.09
2022-10-19T04:23:55.717Z,41.09
2022-10-19T04:24:55.872Z,41.41
2022-10-19T04:25:55.728Z,40.61
2022-10-19T04:26:55.696Z,40.93
2022-10-19T04:27:55.698Z,41.09
2022-10-19T04:28:55.752Z,42.54
2022-10-19T04:29:55.700Z,40.77
2022-10-19T04:30:55.673Z,40.77
2022-10-19T04:31:55.678Z,40.61
2022-10-19T04:32:55.670Z,40.77
2022-10-19T04:33:55.671Z,40.61
2022-10-19T04:34:55.661Z,40.61
2022-10-19T04:35:56.028Z,40.44
2022-10-19T04:36:55.672Z,40.61
2022-10-19T04:37:55.625Z,40.93
2022-10-19T04:38:55.656Z,41.73
2022-10-19T04:39:55.617Z,41.57
2022-10-19T04:40:55.597Z,41.57
2022-10-19T04:41:55.607Z,41.25
2022-10-19T04:42:55.626Z,41.57
2022-10-19T04:43:55.594Z,40.93
2022-10-19T04:44:55.604Z,41.57
2022-10-19T04:45:55.577Z,41.57
2022-10-19T04:46:55.580Z,41.41
2022-10-19T04:47:55.561Z,41.41
2022-10-19T04:48:55.578Z,41.57
2022-10-19T04:49:55.537Z,43.02
2022-10-19T04:50:55.533Z,43.18
2022-10-19T04:51:55.529Z,43.02
2022-10-19T04:52:55.528Z,43.18
2022-10-19T04:53:57.008Z,42.86
2022-10-19T04:54:55.541Z,42.54
2022-10-19T04:55:55.506Z,42.54
2022-10-19T04:56:55.524Z,42.06
2022-10-19T04:57:55.509Z,42.38
2022-10-19T04:58:55.491Z,42.22
2022-10-19T04:59:55.511Z,42.38
2022-10-19T05:00:55.524Z,42.54
2022-10-19T05:01:55.456Z,43.02
2022-10-19T05:02:55.450Z,43.02
2022-10-19T05:04:55.437Z,42.86
2022-10-19T05:05:55.435Z,42.70
2022-10-19T05:06:55.425Z,42.54
2022-10-19T05:07:55.418Z,42.54
2022-10-19T05:08:55.404Z,42.54
2022-10-19T05:09:55.401Z,42.86
2022-10-19T05:10:55.528Z,43.02
2022-10-19T05:11:55.386Z,43.18
2022-10-19T05:12:55.419Z,43.02
2022-10-19T05:13:55.376Z,43.67
2022-10-19T05:14:55.368Z,43.02
2022-10-19T05:15:55.360Z,42.54
2022-10-19T05:16:55.375Z,42.86
2022-10-19T05:17:55.339Z,43.99
2022-10-19T05:18:55.436Z,45.44
2022-10-19T05:19:55.329Z,42.70
2022-10-19T05:20:55.327Z,41.89
2022-10-19T05:21:55.317Z,41.57
2022-10-19T05:22:55.319Z,41.41
2022-10-19T05:23:55.307Z,41.89
2022-10-19T05:24:58.070Z,43.02
2022-10-19T05:25:55.283Z,43.18
2022-10-19T05:26:55.323Z,42.06
2022-10-19T05:27:55.273Z,41.73
2022-10-19T05:28:55.314Z,42.22
2022-10-19T05:29:55.314Z,42.06
2022-10-19T05:30:55.260Z,42.86
2022-10-19T05:31:56.043Z,43.02
2022-10-19T05:32:55.246Z,42.22
2022-10-19T05:33:55.349Z,43.67
2022-10-19T05:34:55.217Z,43.34
2022-10-19T05:36:00.409Z,44.79
2022-10-19T05:36:55.224Z,44.15
2022-10-19T05:37:55.207Z,44.15
2022-10-19T05:38:55.207Z,43.99
2022-10-19T05:39:55.205Z,43.67
2022-10-19T05:40:55.180Z,43.83
2022-10-19T05:41:55.192Z,43.51
2022-10-19T05:42:55.188Z,43.83
2022-10-19T05:43:55.160Z,44.63
2022-10-19T05:44:55.158Z,45.44
2022-10-19T05:45:55.147Z,45.76
2022-10-19T05:46:55.679Z,45.12
2022-10-19T05:47:55.142Z,44.47
2022-10-19T05:48:55.123Z,48.02
2022-10-19T05:49:55.115Z,47.21
2022-10-19T05:50:55.119Z,46.57
2022-10-19T05:51:55.872Z,44.15
2022-10-19T05:52:55.111Z,43.34
2022-10-19T05:53:55.099Z,43.67
2022-10-19T05:54:55.087Z,42.86
2022-10-19T05:55:55.191Z,43.02
2022-10-19T05:56:55.079Z,42.70
2022-10-19T05:57:55.068Z,42.22
2022-10-19T05:58:55.113Z,42.86
2022-10-19T05:59:55.066Z,42.38
2022-10-19T06:00:55.727Z,43.51
2022-10-19T06:01:55.082Z,43.34
2022-10-19T06:02:59.101Z,43.02
2022-10-19T06:03:55.021Z,43.51
2022-10-19T06:04:55.022Z,43.18
2022-10-19T06:05:55.004Z,43.34
2022-10-19T06:06:55.026Z,44.63
2022-10-19T06:07:55.008Z,44.31
2022-10-19T06:08:54.990Z,48.02
2022-10-19T06:09:54.992Z,44.31
2022-10-19T06:10:54.980Z,42.86
2022-10-19T06:11:54.977Z,43.67
2022-10-19T06:12:54.964Z,43.99
2022-10-19T06:13:54.951Z,52.21
2022-10-19T06:14:54.985Z,43.02
2022-10-19T06:15:54.942Z,44.63
2022-10-19T06:16:54.995Z,42.86
2022-10-19T06:17:54.931Z,42.70
2022-10-19T06:18:54.939Z,42.38
2022-10-19T06:19:54.919Z,42.22
2022-10-19T06:20:54.910Z,42.86
2022-10-19T06:21:54.895Z,44.15
2022-10-19T06:22:54.883Z,43.18
2022-10-19T06:23:54.898Z,43.02
2022-10-19T06:24:54.883Z,42.54
2022-10-19T06:25:54.863Z,43.83
2022-10-19T06:26:54.858Z,44.47
2022-10-19T06:27:54.901Z,42.86
2022-10-19T06:28:55.598Z,43.51
2022-10-19T06:29:54.842Z,42.70
2022-10-19T06:30:54.921Z,43.51
2022-10-19T06:31:54.820Z,42.54
2022-10-19T06:32:54.894Z,43.34
2022-10-19T06:33:56.018Z,43.83
2022-10-19T06:34:56.527Z,43.18
2022-10-19T06:35:54.811Z,43.67
2022-10-19T06:36:54.778Z,42.70
2022-10-19T06:37:54.777Z,43.34
2022-10-19T06:38:54.790Z,43.18
2022-10-19T06:39:54.841Z,43.51
2022-10-19T06:40:54.759Z,42.86
2022-10-19T06:41:54.747Z,41.89
2022-10-19T06:42:54.734Z,43.18
2022-10-19T06:43:54.732Z,43.83
2022-10-19T06:44:54.730Z,43.51
2022-10-19T06:45:54.726Z,43.02
2022-10-19T06:46:54.732Z,43.51
2022-10-19T06:47:54.712Z,43.67
2022-10-19T06:48:54.695Z,43.34
2022-10-19T06:49:54.697Z,44.63
2022-10-19T06:50:54.704Z,43.51
2022-10-19T06:51:54.703Z,43.83
2022-10-19T06:52:54.674Z,44.63
2022-10-19T06:53:57.004Z,45.60
2022-10-19T06:54:54.650Z,43.99
2022-10-19T06:55:54.639Z,44.79
2022-10-19T06:56:54.649Z,43.02
2022-10-19T06:57:54.641Z,42.70
2022-10-19T06:58:54.640Z,43.18
2022-10-19T06:59:54.633Z,43.02
2022-10-19T07:00:54.667Z,42.54
2022-10-19T07:01:54.619Z,43.67
2022-10-19T07:02:54.622Z,43.18
2022-10-19T07:03:54.651Z,43.34
2022-10-19T07:04:54.595Z,43.34
2022-10-19T07:05:54.577Z,44.63
2022-10-19T07:06:54.602Z,43.51
2022-10-19T07:07:54.633Z,43.18
2022-10-19T07:08:54.568Z,42.38
2022-10-19T07:09:54.572Z,43.34
2022-10-19T07:10:54.550Z,43.51
2022-10-19T07:11:54.550Z,43.83
2022-10-19T07:12:54.627Z,43.34
2022-10-19T07:13:54.519Z,43.02
2022-10-19T07:14:54.520Z,42.86
2022-10-19T07:15:54.529Z,44.15
2022-10-19T07:16:54.524Z,43.83
2022-10-19T07:17:54.502Z,43.34
2022-10-19T07:18:54.511Z,43.34
2022-10-19T07:19:54.534Z,43.18
2022-10-19T07:20:54.484Z,42.70
2022-10-19T07:21:54.475Z,43.34
2022-10-19T07:22:54.464Z,42.54
2022-10-19T07:23:54.488Z,42.38
2022-10-19T07:24:54.451Z,42.86
2022-10-19T07:25:54.437Z,43.51
2022-10-19T07:26:54.436Z,43.67
2022-10-19T07:27:54.426Z,42.86
2022-10-19T07:28:54.415Z,42.22
2022-10-19T07:29:54.431Z,42.22
2022-10-19T07:30:55.134Z,41.25
2022-10-19T07:31:54.401Z,41.25
2022-10-19T07:32:54.430Z,41.57
2022-10-19T07:33:54.382Z,41.25
2022-10-19T07:34:54.425Z,41.73
2022-10-19T07:35:54.373Z,43.51
2022-10-19T07:36:54.412Z,41.41
2022-10-19T07:37:54.361Z,41.57
2022-10-19T07:38:54.351Z,41.73
2022-10-19T07:39:54.355Z,41.25
2022-10-19T07:40:54.346Z,41.41
2022-10-19T07:41:54.341Z,41.57
2022-10-19T07:42:54.339Z,45.76
2022-10-19T07:43:54.321Z,42.54
2022-10-19T07:44:54.304Z,41.57
2022-10-19T07:45:54.323Z,41.73
2022-10-19T07:46:54.304Z,41.89
2022-10-19T07:47:54.288Z,41.57
2022-10-19T07:48:54.328Z,41.89
2022-10-19T07:49:54.270Z,42.06
2022-10-19T07:50:54.281Z,42.06
2022-10-19T07:51:54.331Z,42.06
2022-10-19T07:52:54.920Z,41.73
2022-10-19T07:53:54.246Z,40.93
2022-10-19T07:54:54.248Z,41.57
2022-10-19T07:55:54.241Z,41.73
2022-10-19T07:56:54.218Z,42.38
2022-10-19T07:57:54.220Z,41.89
2022-10-19T07:58:54.233Z,41.73
2022-10-19T07:59:54.199Z,41.41
2022-10-19T08:00:54.198Z,42.22
2022-10-19T08:01:54.262Z,43.18
2022-10-19T08:03:00.056Z,42.22
2022-10-19T08:05:01.057Z,42.38
2022-10-19T08:05:55.159Z,42.70
2022-10-19T08:06:54.176Z,42.38
2022-10-19T08:07:54.138Z,43.02
2022-10-19T08:08:54.219Z,43.18
2022-10-19T08:09:54.525Z,43.67
2022-10-19T08:10:54.139Z,43.51
2022-10-19T08:11:54.118Z,43.99
2022-10-19T08:12:54.110Z,43.99
2022-10-19T08:13:54.100Z,43.99
2022-10-19T08:14:54.106Z,42.70
2022-10-19T08:15:54.095Z,43.02
2022-10-19T08:16:54.086Z,42.38
2022-10-19T08:17:54.087Z,41.25
2022-10-19T08:18:54.087Z,40.77
2022-10-19T08:19:54.494Z,40.28
2022-10-19T08:20:54.057Z,40.12
2022-10-19T08:21:54.049Z,40.44
2022-10-19T08:22:57.938Z,40.12
2022-10-19T08:23:55.037Z,40.44
2022-10-19T08:24:54.033Z,39.96
2022-10-19T08:25:54.024Z,40.44
2022-10-19T08:26:54.246Z,40.28
2022-10-19T08:27:54.008Z,40.28
2022-10-19T08:28:53.990Z,43.02
2022-10-19T08:29:54.002Z,41.09
2022-10-19T08:30:53.987Z,40.12
2022-10-19T08:31:54.076Z,40.44
2022-10-19T08:32:53.971Z,39.48
2022-10-19T08:33:53.962Z,40.77
2022-10-19T08:34:53.970Z,40.28
2022-10-19T08:35:53.980Z,40.93
2022-10-19T08:36:53.960Z,40.44
2022-10-19T08:37:54.343Z,40.93
2022-10-19T08:38:53.956Z,41.89
2022-10-19T08:39:53.948Z,46.73
2022-10-19T08:40:53.916Z,43.18
2022-10-19T08:41:54.769Z,43.18
2022-10-19T08:42:53.905Z,45.44
2022-10-19T08:43:53.897Z,43.67
2022-10-19T08:44:53.897Z,39.96
2022-10-19T08:45:53.883Z,39.80
2022-10-19T08:46:53.889Z,40.93
2022-10-19T08:47:53.869Z,41.89
2022-10-19T08:48:53.863Z,40.93
2022-10-19T08:49:54.164Z,39.48
2022-10-19T08:50:53.855Z,40.12
2022-10-19T08:51:53.834Z,40.77
2022-10-19T08:52:53.837Z,42.22
2022-10-19T08:53:53.824Z,40.44
2022-10-19T08:54:53.844Z,39.96
2022-10-19T08:55:54.132Z,40.93
2022-10-19T08:56:53.821Z,39.80
2022-10-19T08:57:53.797Z,39.16
2022-10-19T08:58:53.798Z,39.80
2022-10-19T08:59:53.793Z,39.16
2022-10-19T09:00:53.792Z,40.61
2022-10-19T09:01:53.771Z,38.83
2022-10-19T09:02:53.768Z,38.03
2022-10-19T09:03:56.207Z,38.99
2022-10-19T09:04:53.771Z,37.54
2022-10-19T09:05:53.767Z,38.19
2022-10-19T09:06:53.734Z,38.35
2022-10-19T09:07:53.730Z,37.71
2022-10-19T09:08:53.806Z,38.35
2022-10-19T09:09:53.742Z,39.32
2022-10-19T09:10:53.771Z,38.67
2022-10-19T09:11:53.700Z,42.70
2022-10-19T09:12:56.377Z,48.50
2022-10-19T09:14:04.727Z,41.25
2022-10-19T09:14:54.700Z,39.48
2022-10-19T09:15:53.674Z,41.57
2022-10-19T09:16:53.710Z,38.67
2022-10-19T09:17:53.662Z,37.38
2022-10-19T09:19:53.642Z,37.87
2022-10-19T09:20:54.066Z,38.19
2022-10-19T09:21:53.625Z,38.19
2022-10-19T09:22:53.626Z,38.99
2022-10-19T09:23:53.621Z,37.54
2022-10-19T09:24:53.610Z,37.71
2022-10-19T09:25:53.616Z,38.19
2022-10-19T09:26:53.623Z,39.32
2022-10-19T09:27:53.664Z,41.89
2022-10-19T09:28:53.582Z,38.35
2022-10-19T09:29:53.569Z,36.90
2022-10-19T09:30:53.577Z,35.45
2022-10-19T09:31:53.612Z,36.42
2022-10-19T09:32:53.642Z,36.58
2022-10-19T09:33:53.995Z,36.42
2022-10-19T09:34:53.541Z,37.54
2022-10-19T09:35:53.569Z,36.90
2022-10-19T09:36:53.623Z,36.42
2022-10-19T09:37:53.559Z,37.22
2022-10-19T09:38:53.522Z,36.90
2022-10-19T09:39:54.972Z,36.90
2022-10-19T09:40:53.500Z,38.51
2022-10-19T09:41:53.808Z,38.67
2022-10-19T09:42:54.469Z,38.19
2022-10-19T09:43:53.913Z,38.35
2022-10-19T09:44:53.467Z,38.99
2022-10-19T09:45:53.466Z,38.83
2022-10-19T09:46:53.482Z,38.35
2022-10-19T09:47:53.453Z,38.35
2022-10-19T09:48:53.523Z,38.51
2022-10-19T09:49:53.990Z,39.16
2022-10-19T09:50:53.528Z,41.73
2022-10-19T09:51:53.440Z,42.70
2022-10-19T09:52:53.480Z,37.87
2022-10-19T09:53:54.564Z,37.71
2022-10-19T09:54:53.437Z,40.12
2022-10-19T09:55:53.927Z,38.67
2022-10-19T09:56:53.382Z,38.03
2022-10-19T09:57:53.398Z,37.38
2022-10-19T09:58:53.402Z,37.22
2022-10-19T09:59:53.354Z,37.54
2022-10-19T10:00:53.882Z,37.38
2022-10-19T10:01:53.440Z,39.96
2022-10-19T10:02:53.370Z,37.87
2022-10-19T10:03:55.871Z,39.80
2022-10-19T10:04:53.377Z,37.38
2022-10-19T10:05:54.468Z,37.71
2022-10-19T10:06:53.713Z,36.90
2022-10-19T10:07:53.805Z,36.58
2022-10-19T10:08:53.375Z,37.54
2022-10-19T10:09:53.342Z,39.16
2022-10-19T10:10:53.301Z,37.87
2022-10-19T10:12:53.314Z,42.22
2022-10-19T10:13:53.296Z,42.22
2022-10-19T10:14:53.282Z,38.51
2022-10-19T10:15:53.277Z,38.83
2022-10-19T10:16:53.239Z,38.99
2022-10-19T10:17:53.261Z,39.48
2022-10-19T10:18:53.246Z,38.67
2022-10-19T10:19:53.207Z,38.99
2022-10-19T10:20:53.302Z,41.41
2022-10-19T10:21:53.258Z,38.03
2022-10-19T10:22:53.232Z,38.03
2022-10-19T10:23:53.230Z,37.06
2022-10-19T10:24:53.282Z,37.06
2022-10-19T10:25:53.255Z,43.99
2022-10-19T10:26:53.232Z,38.35
2022-10-19T10:27:53.247Z,38.35
2022-10-19T10:28:53.890Z,38.19
2022-10-19T10:29:53.213Z,37.54
2022-10-19T10:30:53.211Z,37.38
2022-10-19T10:31:53.185Z,42.06
2022-10-19T10:32:53.178Z,37.38
2022-10-19T10:34:56.904Z,37.38
2022-10-19T10:35:54.120Z,45.28
2022-10-19T10:36:53.195Z,37.87
2022-10-19T10:37:53.119Z,37.22
2022-10-19T10:38:53.250Z,36.90
2022-10-19T10:39:53.110Z,39.32
2022-10-19T10:40:53.139Z,37.38
2022-10-19T10:41:53.110Z,37.54
2022-10-19T10:42:53.127Z,37.87
2022-10-19T10:43:53.257Z,39.96
2022-10-19T10:44:53.091Z,54.46
2022-10-19T10:45:53.063Z,38.35
2022-10-19T10:46:53.072Z,49.31
2022-10-19T10:47:53.063Z,58.01
2022-10-19T10:48:53.484Z,39.48
2022-10-19T10:49:53.112Z,41.41
2022-10-19T10:50:53.081Z,41.57
2022-10-19T10:51:53.258Z,39.48
2022-10-19T10:52:53.032Z,38.51
2022-10-19T10:53:52.997Z,39.16
2022-10-19T10:54:53.066Z,39.48
2022-10-19T10:55:53.075Z,39.32
2022-10-19T10:56:53.046Z,39.96
2022-10-19T10:57:52.972Z,38.99
2022-10-19T10:58:53.222Z,38.51
2022-10-19T10:59:53.004Z,39.96
2022-10-19T11:00:53.056Z,41.89
2022-10-19T11:01:53.019Z,39.48
2022-10-19T11:02:52.995Z,39.16
2022-10-19T11:03:53.032Z,47.21
2022-10-19T11:04:52.990Z,46.73
2022-10-19T11:05:52.977Z,46.89
2022-10-19T11:06:52.943Z,46.08
2022-10-19T11:07:52.929Z,47.21
2022-10-19T11:08:52.956Z,47.21
2022-10-19T11:09:52.962Z,47.05
2022-10-19T11:10:52.878Z,47.37
2022-10-19T11:11:52.895Z,47.21
2022-10-19T11:12:53.495Z,47.70
2022-10-19T11:13:52.866Z,47.21
2022-10-19T11:14:52.874Z,47.70
2022-10-19T11:15:52.896Z,46.57
2022-10-19T11:16:52.888Z,45.60
2022-10-19T11:17:52.863Z,45.28
2022-10-19T11:18:52.859Z,45.76
2022-10-19T11:19:52.911Z,46.73
2022-10-19T11:20:52.885Z,47.21
2022-10-19T11:21:52.819Z,46.73
2022-10-19T11:22:52.850Z,49.15
2022-10-19T11:23:52.867Z,50.60
2022-10-19T11:24:52.834Z,53.01
2022-10-19T11:25:52.999Z,52.85
2022-10-19T11:26:52.770Z,44.63
2022-10-19T11:27:52.894Z,44.15
2022-10-19T11:28:52.794Z,44.47
2022-10-19T11:29:52.893Z,45.12
2022-10-19T11:30:52.751Z,45.60
2022-10-19T11:31:52.803Z,39.96
2022-10-19T11:32:52.739Z,39.48
2022-10-19T11:33:52.749Z,38.51
2022-10-19T11:34:52.820Z,38.19
2022-10-19T11:35:52.745Z,38.51
2022-10-19T11:36:52.746Z,38.19
2022-10-19T11:38:17.335Z,38.51
2022-10-19T11:38:53.733Z,38.51
2022-10-19T11:39:52.777Z,37.71
2022-10-19T11:41:16.416Z,38.03
2022-10-19T11:41:53.696Z,38.83
2022-10-19T11:42:52.832Z,41.41
2022-10-19T11:43:52.724Z,37.87
2022-10-19T11:44:52.677Z,38.35
2022-10-19T11:45:52.677Z,38.51
2022-10-19T11:46:52.647Z,38.03
2022-10-19T11:47:52.731Z,38.35
2022-10-19T11:48:54.808Z,37.38
2022-10-19T11:49:52.657Z,37.54
2022-10-19T11:50:54.567Z,36.90
2022-10-19T11:51:53.632Z,39.96
2022-10-19T11:52:52.604Z,61.39
2022-10-19T11:53:52.645Z,48.02
2022-10-19T11:54:52.634Z,41.09
2022-10-19T11:55:52.627Z,60.26
2022-10-19T11:57:04.960Z,44.79
2022-10-19T11:57:53.568Z,44.63
2022-10-19T11:58:52.570Z,47.37
2022-10-19T11:59:52.660Z,47.37
2022-10-19T12:00:52.553Z,48.02
2022-10-19T12:01:52.595Z,47.37
2022-10-19T12:02:52.559Z,47.21
2022-10-19T12:03:52.542Z,47.70
2022-10-19T12:04:52.529Z,46.89
2022-10-19T12:05:52.564Z,47.05
2022-10-19T12:06:53.001Z,48.34
2022-10-19T12:07:52.525Z,51.24
2022-10-19T12:08:55.354Z,61.23
2022-10-19T12:09:52.543Z,50.60
2022-10-19T12:10:52.497Z,50.60
2022-10-19T12:11:52.472Z,47.37
2022-10-19T12:12:52.564Z,49.31
2022-10-19T12:13:52.521Z,51.24
2022-10-19T12:14:52.487Z,50.60
2022-10-19T12:15:53.672Z,49.95
2022-10-19T12:16:52.436Z,50.11
2022-10-19T12:17:52.490Z,49.63
2022-10-19T12:18:52.426Z,48.34
2022-10-19T12:19:53.068Z,47.37
2022-10-19T12:20:52.451Z,46.89
2022-10-19T12:21:52.407Z,47.86
2022-10-19T12:22:52.460Z,44.47
2022-10-19T12:23:52.384Z,44.31
2022-10-19T12:24:52.409Z,43.83
2022-10-19T12:25:52.378Z,43.67
2022-10-19T12:26:52.463Z,43.83
2022-10-19T12:27:52.379Z,44.96
2022-10-19T12:28:52.385Z,44.47
2022-10-19T12:29:52.356Z,46.08
2022-10-19T12:30:52.428Z,49.31
2022-10-19T12:31:52.352Z,51.72
2022-10-19T12:32:54.258Z,51.88
2022-10-19T12:33:52.410Z,49.31
2022-10-19T12:34:52.699Z,48.50
2022-10-19T12:35:52.315Z,47.05
2022-10-19T12:36:52.338Z,49.47
2022-10-19T12:37:52.293Z,48.18
2022-10-19T12:39:00.087Z,48.18
2022-10-19T12:39:53.341Z,53.66
2022-10-19T12:40:52.276Z,51.72
2022-10-19T12:41:52.283Z,50.27
2022-10-19T12:42:52.310Z,52.21
2022-10-19T12:43:52.521Z,48.34
2022-10-19T12:44:54.966Z,49.31
2022-10-19T12:45:53.312Z,49.95
2022-10-19T12:46:53.080Z,47.86
2022-10-19T12:47:52.280Z,48.98
2022-10-19T12:48:52.307Z,48.02
2022-10-19T12:49:52.267Z,52.53
2022-10-19T12:50:52.285Z,47.70
2022-10-19T12:51:52.281Z,46.89
2022-10-19T12:52:52.230Z,48.50
2022-10-19T12:53:52.193Z,47.37
2022-10-19T12:54:52.279Z,47.37
2022-10-19T12:55:52.198Z,45.60
2022-10-19T12:56:52.164Z,48.82
2022-10-19T12:57:52.183Z,49.31
2022-10-19T12:58:52.242Z,50.60
2022-10-19T12:59:52.264Z,50.43